createdAt,value
2022-10-30T00:00:45.045Z,101613.41
2022-10-30T00:03:48.021Z,101608.91
2022-10-30T00:06:51.301Z,101610.34
2022-10-30T00:09:54.161Z,101617.97
2022-10-30T00:12:58.226Z,101615.13
2022-10-30T00:16:06.069Z,101624.66
2022-10-30T00:19:08.881Z,101614.75
2022-10-30T00:22:12.758Z,101624.81
2022-10-30T00:25:15.759Z,101619.41
2022-10-30T00:28:18.553Z,101603.03
2022-10-30T00:31:22.356Z,101598.34
2022-10-30T00:34:25.147Z,101592.84
2022-10-30T00:37:27.861Z,101586.66
2022-10-30T00:40:30.661Z,101584.81
2022-10-30T00:43:39.594Z,101583.72
2022-10-30T00:46:42.756Z,101583.88
2022-10-30T00:50:01.085Z,101580.47
2022-10-30T00:53:17.613Z,101583.88
2022-10-30T00:56:23.669Z,101587.31
2022-10-30T00:59:30.860Z,101583.94
2022-10-30T01:02:33.861Z,101585.38
2022-10-30T01:05:36.882Z,101589.66
2022-10-30T01:08:40.263Z,101576.13
2022-10-30T01:11:43.194Z,101578.03
2022-10-30T01:14:50.932Z,101581.50
2022-10-30T01:18:08.401Z,101578.41
2022-10-30T01:21:20.382Z,101578.47
2022-10-30T01:24:23.216Z,101567.78
2022-10-30T01:27:58.895Z,101572.38
2022-10-30T01:31:20.280Z,101561.00
2022-10-30T01:34:35.422Z,101569.84
2022-10-30T01:38:02.123Z,101565.31
2022-10-30T01:41:04.969Z,101561.81
2022-10-30T01:44:32.271Z,101551.88
2022-10-30T01:47:42.153Z,101552.69
2022-10-30T01:50:56.667Z,101549.81
2022-10-30T01:54:20.870Z,101542.66
2022-10-30T01:57:40.057Z,101536.34
2022-10-30T02:00:52.302Z,101539.38
2022-10-30T02:03:55.437Z,101538.63
2022-10-30T02:06:59.047Z,101533.31
2022-10-30T02:10:02.298Z,101535.91
2022-10-30T02:13:05.677Z,101527.47
2022-10-30T02:16:09.428Z,101526.25
2022-10-30T02:19:12.184Z,101525.78
2022-10-30T02:22:15.080Z,101522.59
2022-10-30T02:25:19.204Z,101526.69
2022-10-30T02:28:21.944Z,101523.75
2022-10-30T02:31:25.268Z,101525.44
2022-10-30T02:34:28.356Z,101525.63
2022-10-30T02:37:35.734Z,101527.53
2022-10-30T02:40:38.572Z,101525.81
2022-10-30T02:43:43.726Z,101520.41
2022-10-30T02:46:46.447Z,101512.28
2022-10-30T02:49:49.224Z,101516.31
2022-10-30T02:52:51.953Z,101511.53
2022-10-30T02:55:55.275Z,101509.25
2022-10-30T02:58:58.679Z,101507.41
2022-10-30T03:02:01.693Z,101510.25
2022-10-30T03:05:04.848Z,101508.44
2022-10-30T03:08:07.869Z,101506.97
2022-10-30T03:11:16.104Z,101507.94
2022-10-30T03:14:18.900Z,101499.34
2022-10-30T03:17:21.700Z,101492.81
2022-10-30T03:20:25.690Z,101489.97
2022-10-30T03:23:29.930Z,101492.88
2022-10-30T03:26:32.686Z,101503.97
2022-10-30T03:29:41.486Z,101521.41
2022-10-30T03:32:44.702Z,101518.25
2022-10-30T03:35:47.558Z,101512.16
2022-10-30T03:38:50.361Z,101513.63
2022-10-30T03:41:55.305Z,101512.81
2022-10-30T03:44:58.010Z,101517.34
2022-10-30T03:48:06.187Z,101532.53
2022-10-30T03:51:09.371Z,101515.88
2022-10-30T03:54:12.320Z,101505.72
2022-10-30T03:57:15.075Z,101491.16
2022-10-30T04:00:53.709Z,101500.25
2022-10-30T04:03:56.817Z,101496.84
2022-10-30T04:07:01.265Z,101497.50
2022-10-30T04:10:04.350Z,101494.59
2022-10-30T04:13:11.390Z,101493.75
2022-10-30T04:16:21.135Z,101493.47
2022-10-30T04:19:23.991Z,101489.19
2022-10-30T04:22:26.928Z,101491.00
2022-10-30T04:25:30.570Z,101496.69
2022-10-30T04:28:35.669Z,101507.47
2022-10-30T04:31:39.461Z,101497.16
2022-10-30T04:34:42.316Z,101478.91
2022-10-30T04:38:01.458Z,101480.44
2022-10-30T04:41:04.658Z,101476.41
2022-10-30T04:44:22.541Z,101486.09
2022-10-30T04:47:27.694Z,101492.66
2022-10-30T04:50:32.195Z,101475.38
2022-10-30T04:53:35.149Z,101470.28
2022-10-30T04:56:42.370Z,101475.19
2022-10-30T04:59:45.729Z,101467.34
2022-10-30T05:02:48.543Z,101471.44
2022-10-30T05:06:00.785Z,101479.59
2022-10-30T05:09:04.510Z,101476.66
2022-10-30T05:12:13.681Z,101471.44
2022-10-30T05:15:26.432Z,101478.78
2022-10-30T05:18:29.519Z,101476.69
2022-10-30T05:21:32.375Z,101493.50
2022-10-30T05:24:35.189Z,101488.63
2022-10-30T05:27:38.047Z,101472.81
2022-10-30T05:30:40.883Z,101491.13
2022-10-30T05:33:53.685Z,101500.41
2022-10-30T05:36:59.034Z,101498.91
2022-10-30T05:40:02.386Z,101503.34
2022-10-30T05:43:07.925Z,101496.09
2022-10-30T05:46:11.035Z,101497.66
2022-10-30T05:49:14.009Z,101497.75
2022-10-30T05:52:16.922Z,101500.97
2022-10-30T05:55:19.715Z,101493.63
2022-10-30T05:58:50.595Z,101494.53
2022-10-30T06:01:53.602Z,101508.63
2022-10-30T06:04:56.490Z,101508.22
2022-10-30T06:07:59.569Z,101497.94
2022-10-30T06:11:02.657Z,101504.13
2022-10-30T06:14:12.887Z,101515.09
2022-10-30T06:17:21.479Z,101512.69
2022-10-30T06:20:35.284Z,101508.06
2022-10-30T06:24:00.759Z,101511.09
2022-10-30T06:27:25.317Z,101518.13
2022-10-30T06:30:28.671Z,101518.56
2022-10-30T06:33:31.507Z,101521.13
2022-10-30T06:36:35.893Z,101523.44
2022-10-30T06:39:39.939Z,101526.31
2022-10-30T06:43:17.433Z,101526.69
2022-10-30T06:46:30.600Z,101527.88
2022-10-30T06:49:36.382Z,101532.56
2022-10-30T06:52:39.390Z,101537.44
2022-10-30T06:55:42.812Z,101534.94
2022-10-30T06:59:06.002Z,101537.09
2022-10-30T07:02:18.655Z,101540.63
2022-10-30T07:05:27.443Z,101543.69
2022-10-30T07:08:30.422Z,101544.06
2022-10-30T07:11:34.344Z,101552.97
2022-10-30T07:15:00.181Z,101555.78
2022-10-30T07:18:14.880Z,101558.00
2022-10-30T07:21:18.270Z,101563.38
2022-10-30T07:24:21.047Z,101570.88
2022-10-30T07:27:54.439Z,101563.81
2022-10-30T07:31:05.432Z,101565.78
2022-10-30T07:34:26.671Z,101566.00
2022-10-30T07:38:10.969Z,101577.03
2022-10-30T07:41:20.317Z,101575.63
2022-10-30T07:44:26.164Z,101574.88
2022-10-30T07:48:01.489Z,101570.00
2022-10-30T07:51:17.738Z,101571.50
2022-10-30T07:54:20.577Z,101571.69
2022-10-30T07:57:23.892Z,101573.63
2022-10-30T08:01:03.666Z,101581.97
2022-10-30T08:04:11.324Z,101577.88
2022-10-30T08:07:14.324Z,101577.53
2022-10-30T08:10:17.215Z,101573.47
2022-10-30T08:13:19.986Z,101572.75
2022-10-30T08:16:24.449Z,101565.84
2022-10-30T08:19:27.337Z,101567.53
2022-10-30T08:22:31.635Z,101565.91
2022-10-30T08:25:36.878Z,101562.25
2022-10-30T08:28:40.379Z,101563.97
2022-10-30T08:31:49.066Z,101566.41
2022-10-30T08:34:57.635Z,101565.31
2022-10-30T08:38:03.126Z,101562.22
2022-10-30T08:41:06.833Z,101562.16
2022-10-30T08:44:16.572Z,101559.03
2022-10-30T08:48:06.454Z,101560.88
2022-10-30T08:51:14.258Z,101566.59
2022-10-30T08:54:20.243Z,101567.84
2022-10-30T08:57:23.142Z,101560.34
2022-10-30T09:00:28.184Z,101559.34
2022-10-30T09:03:49.592Z,101557.91
2022-10-30T09:07:12.971Z,101557.69
2022-10-30T09:10:45.212Z,101561.78
2022-10-30T09:13:49.526Z,101566.72
2022-10-30T09:16:54.753Z,101556.50
2022-10-30T09:19:58.241Z,101556.72
2022-10-30T09:23:10.316Z,101554.84
2022-10-30T09:26:17.016Z,101544.22
2022-10-30T09:29:31.939Z,101553.25
2022-10-30T09:32:34.806Z,101550.44
2022-10-30T09:35:43.078Z,101548.22
2022-10-30T09:38:46.155Z,101550.88
2022-10-30T09:41:58.562Z,101568.69
2022-10-30T09:45:30.271Z,101575.16
2022-10-30T09:48:58.866Z,101569.56
2022-10-30T09:52:40.074Z,101569.78
2022-10-30T09:55:49.678Z,101568.28
2022-10-30T09:59:22.329Z,101561.09
2022-10-30T10:02:37.748Z,101565.00
2022-10-30T10:06:07.193Z,101557.22
2022-10-30T10:09:33.956Z,101553.34
2022-10-30T10:12:52.469Z,101558.19
2022-10-30T10:16:04.133Z,101550.84
2022-10-30T10:19:15.951Z,101548.16
2022-10-30T10:22:24.864Z,101557.41
2022-10-30T10:25:31.169Z,101563.56
2022-10-30T10:28:56.176Z,101559.44
2022-10-30T10:32:17.345Z,101572.03
2022-10-30T10:35:29.205Z,101569.63
2022-10-30T10:38:38.045Z,101562.94
2022-10-30T10:42:23.813Z,101564.81
2022-10-30T10:45:44.069Z,101560.09
2022-10-30T10:48:58.908Z,101549.84
2022-10-30T10:52:08.824Z,101543.06
2022-10-30T10:55:22.319Z,101539.34
2022-10-30T10:58:31.800Z,101545.94
2022-10-30T11:01:40.336Z,101543.94
2022-10-30T11:04:50.633Z,101546.41
2022-10-30T11:07:58.593Z,101538.59
2022-10-30T11:11:03.995Z,101543.50
2022-10-30T11:14:18.905Z,101541.88
2022-10-30T11:17:32.407Z,101525.81
2022-10-30T11:20:52.663Z,101531.38
2022-10-30T11:23:55.422Z,101525.25
2022-10-30T11:27:19.779Z,101520.13
2022-10-30T11:30:28.580Z,101512.94
2022-10-30T11:33:31.294Z,101510.06
2022-10-30T11:36:36.274Z,101509.25
2022-10-30T11:39:39.459Z,101503.91
2022-10-30T11:43:10.772Z,101506.75
2022-10-30T11:46:23.102Z,101496.84
2022-10-30T11:49:42.094Z,101493.34
2022-10-30T11:52:45.231Z,101494.72
2022-10-30T11:55:49.771Z,101498.00
2022-10-30T11:58:59.191Z,101491.78
2022-10-30T12:02:30.396Z,101482.41
2022-10-30T12:05:39.437Z,101481.41
2022-10-30T12:08:42.191Z,101478.16
2022-10-30T12:11:45.387Z,101487.94
2022-10-30T12:14:48.464Z,101487.25
2022-10-30T12:18:00.213Z,101483.38
2022-10-30T12:21:04.122Z,101476.31
2022-10-30T12:24:32.021Z,101477.69
2022-10-30T12:27:38.657Z,101469.25
2022-10-30T12:30:54.666Z,101472.38
2022-10-30T12:34:36.329Z,101457.75
2022-10-30T12:37:42.876Z,101457.34
2022-10-30T12:41:02.481Z,101456.16
2022-10-30T12:44:14.122Z,101463.31
2022-10-30T12:47:29.078Z,101474.59
2022-10-30T12:50:51.281Z,101464.53
2022-10-30T12:54:12.797Z,101460.38
2022-10-30T12:57:28.137Z,101459.31
2022-10-30T13:00:38.202Z,101459.41
2022-10-30T13:03:53.724Z,101459.34
2022-10-30T13:07:36.398Z,101466.91
2022-10-30T13:10:47.330Z,101459.19
2022-10-30T13:13:55.493Z,101453.50
2022-10-30T13:16:59.157Z,101446.69
2022-10-30T13:20:02.299Z,101461.03
2022-10-30T13:23:18.591Z,101450.81
2022-10-30T13:26:34.079Z,101448.72
2022-10-30T13:29:54.494Z,101443.78
2022-10-30T13:33:06.340Z,101443.38
2022-10-30T13:36:09.249Z,101440.03
2022-10-30T13:39:21.023Z,101439.19
2022-10-30T13:42:42.488Z,101445.50
2022-10-30T13:46:17.682Z,101447.63
2022-10-30T13:49:29.882Z,101446.81
2022-10-30T13:52:36.679Z,101453.63
2022-10-30T13:55:42.301Z,101449.09
2022-10-30T13:59:03.561Z,101453.44
2022-10-30T14:02:34.487Z,101451.25
2022-10-30T14:06:10.751Z,101445.84
2022-10-30T14:09:33.310Z,101436.38
2022-10-30T14:12:57.839Z,101439.72
2022-10-30T14:16:02.265Z,101434.63
2022-10-30T14:19:07.642Z,101440.97
2022-10-30T14:22:25.139Z,101437.47
2022-10-30T14:25:27.911Z,101429.06
2022-10-30T14:28:32.182Z,101433.78
2022-10-30T14:31:37.118Z,101437.09
2022-10-30T14:34:45.425Z,101444.66
2022-10-30T14:37:48.208Z,101438.94
2022-10-30T14:41:00.793Z,101439.53
2022-10-30T14:44:31.075Z,101427.25
2022-10-30T14:47:52.357Z,101426.19
2022-10-30T14:51:18.911Z,101428.22
2022-10-30T14:54:39.894Z,101431.44
2022-10-30T14:58:29.014Z,101435.16
2022-10-30T15:01:38.507Z,101440.69
2022-10-30T15:05:09.880Z,101439.88
2022-10-30T15:08:15.663Z,101448.41
2022-10-30T15:11:40.593Z,101449.63
2022-10-30T15:14:53.881Z,101441.66
2022-10-30T15:18:01.588Z,101446.56
2022-10-30T15:21:07.266Z,101442.00
2022-10-30T15:24:17.342Z,101445.66
2022-10-30T15:27:23.206Z,101437.16
2022-10-30T15:30:27.682Z,101441.66
2022-10-30T15:33:32.580Z,101438.38
2022-10-30T15:36:43.084Z,101438.75
2022-10-30T15:39:45.933Z,101437.53
2022-10-30T15:42:51.255Z,101429.75
2022-10-30T15:45:55.869Z,101428.75
2022-10-30T15:48:58.886Z,101431.00
2022-10-30T15:52:05.309Z,101428.03
2022-10-30T15:55:15.217Z,101427.88
2022-10-30T15:58:23.146Z,101442.59
2022-10-30T16:01:35.172Z,101446.84
2022-10-30T16:04:39.209Z,101453.53
2022-10-30T16:07:46.374Z,101451.31
2022-10-30T16:10:53.462Z,101444.22
2022-10-30T16:13:57.261Z,101453.78
2022-10-30T16:17:00.887Z,101452.97
2022-10-30T16:20:04.713Z,101456.38
2022-10-30T16:23:07.569Z,101459.16
2022-10-30T16:26:23.964Z,101462.72
2022-10-30T16:29:28.064Z,101470.06
2022-10-30T16:32:32.086Z,101481.38
2022-10-30T16:35:34.985Z,101491.31
2022-10-30T16:38:38.570Z,101482.91
2022-10-30T16:41:41.539Z,101477.06
2022-10-30T16:44:44.274Z,101487.06
2022-10-30T16:47:58.403Z,101485.56
2022-10-30T16:51:03.608Z,101485.34
2022-10-30T16:54:08.196Z,101475.94
2022-10-30T16:57:23.113Z,101485.34
2022-10-30T17:00:30.549Z,101481.66
2022-10-30T17:03:41.279Z,101482.28
2022-10-30T17:06:45.486Z,101487.84
2022-10-30T17:09:50.131Z,101487.03
2022-10-30T17:13:13.373Z,101486.78
2022-10-30T17:16:25.930Z,101485.97
2022-10-30T17:19:31.811Z,101488.03
2022-10-30T17:22:35.003Z,101484.88
2022-10-30T17:25:39.322Z,101487.34
2022-10-30T17:28:43.373Z,101484.69
2022-10-30T17:31:48.284Z,101493.09
2022-10-30T17:35:16.583Z,101501.59
2022-10-30T17:38:19.587Z,101492.00
2022-10-30T17:41:22.349Z,101487.88
2022-10-30T17:44:25.911Z,101490.97
2022-10-30T17:47:28.957Z,101497.50
2022-10-30T17:50:32.161Z,101498.81
2022-10-30T17:53:34.944Z,101496.16
2022-10-30T17:56:37.974Z,101494.59
2022-10-30T17:59:41.667Z,101485.81
2022-10-30T18:02:44.808Z,101487.75
2022-10-30T18:05:48.446Z,101487.09
2022-10-30T18:08:51.831Z,101487.91
2022-10-30T18:11:54.644Z,101488.50
2022-10-30T18:14:57.454Z,101494.28
2022-10-30T18:18:00.745Z,101495.19
2022-10-30T18:21:03.660Z,101500.38
2022-10-30T18:24:13.200Z,101500.63
2022-10-30T18:27:15.986Z,101503.22
2022-10-30T18:30:19.840Z,101502.97
2022-10-30T18:33:23.649Z,101493.16
2022-10-30T18:36:36.622Z,101492.59
2022-10-30T18:40:11.227Z,101511.56
2022-10-30T18:43:14.820Z,101501.25
2022-10-30T18:46:18.049Z,101506.69
2022-10-30T18:49:24.512Z,101522.63
2022-10-30T18:52:30.308Z,101518.56
2022-10-30T18:55:37.532Z,101517.94
2022-10-30T18:58:40.459Z,101519.13
2022-10-30T19:01:43.640Z,101522.00
2022-10-30T19:04:46.806Z,101514.16
2022-10-30T19:07:49.907Z,101518.41
2022-10-30T19:10:56.997Z,101518.69
2022-10-30T19:14:03.942Z,101512.63
2022-10-30T19:17:06.702Z,101502.47
2022-10-30T19:20:10.335Z,101505.81
2022-10-30T19:23:16.100Z,101490.56
2022-10-30T19:26:18.884Z,101491.41
2022-10-30T19:29:21.739Z,101489.63
2022-10-30T19:32:24.859Z,101489.88
2022-10-30T19:35:28.342Z,101506.75
2022-10-30T19:38:33.618Z,101499.53
2022-10-30T19:41:38.946Z,101500.66
2022-10-30T19:44:42.000Z,101489.59
2022-10-30T19:47:49.199Z,101493.22
2022-10-30T19:50:52.566Z,101496.03
2022-10-30T19:53:56.281Z,101498.66
2022-10-30T19:56:59.437Z,101498.34
2022-10-30T20:00:02.586Z,101495.56
2022-10-30T20:03:11.906Z,101501.38
2022-10-30T20:06:19.421Z,101513.34
2022-10-30T20:09:23.885Z,101509.84
2022-10-30T20:12:27.070Z,101507.63
2022-10-30T20:15:30.118Z,101509.53
2022-10-30T20:18:35.213Z,101504.41
2022-10-30T20:21:38.389Z,101506.41
2022-10-30T20:24:41.348Z,101510.06
2022-10-30T20:27:46.096Z,101519.00
2022-10-30T20:30:51.764Z,101519.13
2022-10-30T20:33:55.266Z,101514.91
2022-10-30T20:36:58.134Z,101505.94
2022-10-30T20:40:01.265Z,101515.47
2022-10-30T20:43:04.236Z,101506.25
2022-10-30T20:46:09.759Z,101512.44
2022-10-30T20:49:18.163Z,101516.00
2022-10-30T20:52:21.317Z,101519.22
2022-10-30T20:55:24.412Z,101515.41
2022-10-30T20:58:27.986Z,101510.41
2022-10-30T21:01:30.955Z,101511.88
2022-10-30T21:04:33.912Z,101501.81
2022-10-30T21:07:37.486Z,101502.53
2022-10-30T21:10:42.111Z,101505.41
2022-10-30T21:13:45.175Z,101504.28
2022-10-30T21:16:48.125Z,101497.00
2022-10-30T21:19:51.023Z,101495.72
2022-10-30T21:22:57.674Z,101495.19
2022-10-30T21:26:05.482Z,101508.28
2022-10-30T21:29:08.369Z,101499.59
2022-10-30T21:32:11.921Z,101498.84
2022-10-30T21:35:14.916Z,101483.28
2022-10-30T21:38:17.857Z,101486.56
2022-10-30T21:41:22.438Z,101493.91
2022-10-30T21:44:25.305Z,101494.28
2022-10-30T21:47:28.142Z,101488.53
2022-10-30T21:50:30.989Z,101490.88
2022-10-30T21:53:33.855Z,101495.31
2022-10-30T21:56:36.582Z,101493.97
2022-10-30T21:59:39.398Z,101505.81
2022-10-30T22:02:42.269Z,101502.91
2022-10-30T22:05:45.312Z,101499.13
2022-10-30T22:08:50.778Z,101499.91
2022-10-30T22:11:53.561Z,101503.66
2022-10-30T22:14:56.364Z,101495.25
2022-10-30T22:17:59.411Z,101494.59
2022-10-30T22:21:08.328Z,101493.09
2022-10-30T22:24:13.146Z,101492.84
2022-10-30T22:27:15.926Z,101495.19
2022-10-30T22:30:18.809Z,101489.88
2022-10-30T22:33:21.817Z,101496.38
2022-10-30T22:36:30.742Z,101492.09
2022-10-30T22:39:33.817Z,101497.78
2022-10-30T22:42:36.674Z,101496.19
2022-10-30T22:45:39.754Z,101492.72
2022-10-30T22:48:43.528Z,101493.06
2022-10-30T22:51:46.789Z,101490.25
2022-10-30T22:54:49.600Z,101487.41
2022-10-30T22:57:53.768Z,101498.47
2022-10-30T23:01:32.859Z,101494.22
2022-10-30T23:04:35.803Z,101494.06
2022-10-30T23:07:38.559Z,101489.47
2022-10-30T23:10:41.303Z,101492.47
2022-10-30T23:13:45.486Z,101486.81
2022-10-30T23:16:48.221Z,101484.06
2022-10-30T23:19:50.994Z,101480.06
2022-10-30T23:22:53.888Z,101481.47
2022-10-30T23:26:01.923Z,101473.44
2022-10-30T23:29:05.138Z,101478.97
2022-10-30T23:32:08.053Z,101486.09
2022-10-30T23:35:10.809Z,101484.56
2022-10-30T23:38:13.962Z,101479.44
2022-10-30T23:41:17.143Z,101476.09
2022-10-30T23:44:20.142Z,101473.63
2022-10-30T23:47:23.120Z,101473.34
2022-10-30T23:50:26.039Z,101469.41
2022-10-30T23:53:29.475Z,101470.25
2022-10-30T23:56:32.386Z,101472.72
2022-10-30T23:59:35.230Z,101476.00
